createdAt,value
2023-02-19T00:00:19.662Z,51.38
2023-02-19T00:02:50.550Z,46.38
2023-02-19T00:05:19.868Z,44.30
2023-02-19T00:07:49.129Z,43.42
2023-02-19T00:10:18.415Z,40.95
2023-02-19T00:12:47.911Z,41.75
2023-02-19T00:15:17.109Z,40.00
2023-02-19T00:17:46.198Z,40.83
2023-02-19T00:20:15.322Z,41.20
2023-02-19T00:22:44.550Z,40.35
2023-02-19T00:25:13.645Z,38.88
2023-02-19T00:27:42.769Z,39.40
2023-02-19T00:30:12.969Z,38.42
2023-02-19T00:32:42.325Z,38.28
2023-02-19T00:35:11.443Z,36.35
2023-02-19T00:37:40.600Z,36.03
2023-02-19T00:40:10.352Z,34.97
2023-02-19T00:42:39.533Z,33.88
2023-02-19T00:45:09.270Z,35.03
2023-02-19T00:47:38.357Z,34.33
2023-02-19T00:50:07.663Z,32.33
2023-02-19T00:52:37.293Z,35.40
2023-02-19T00:55:06.900Z,32.75
2023-02-19T00:57:36.023Z,31.85
2023-02-19T01:00:07.616Z,32.33
2023-02-19T01:02:36.713Z,32.15
2023-02-19T01:09:15.213Z,31.25
2023-02-19T01:11:44.398Z,30.52
2023-02-19T01:14:14.819Z,30.23
2023-02-19T01:16:44.139Z,30.55
2023-02-19T01:19:13.418Z,27.48
2023-02-19T01:21:43.111Z,27.65
2023-02-19T01:24:12.409Z,27.33
2023-02-19T01:26:41.919Z,27.13
2023-02-19T01:29:11.361Z,28.42
2023-02-19T01:31:43.234Z,26.25
2023-02-19T01:34:14.049Z,26.60
2023-02-19T01:36:43.363Z,25.83
2023-02-19T01:39:13.125Z,23.83
2023-02-19T01:41:43.785Z,22.23
2023-02-19T01:44:20.480Z,21.23
2023-02-19T01:46:54.187Z,28.13
2023-02-19T01:49:36.206Z,22.23
2023-02-19T01:52:34.387Z,22.23
2023-02-19T01:55:08.060Z,24.15
2023-02-19T01:57:46.406Z,21.70
2023-02-19T02:00:18.680Z,20.75
2023-02-19T02:02:53.880Z,21.17
2023-02-19T02:05:54.136Z,20.48
2023-02-19T02:08:42.122Z,17.17
2023-02-19T02:11:11.673Z,16.05
2023-02-19T02:13:42.190Z,16.10
2023-02-19T02:16:28.665Z,17.92
2023-02-19T02:19:30.924Z,16.80
2023-02-19T02:22:14.037Z,16.58
2023-02-19T02:25:35.495Z,17.10
2023-02-19T02:28:43.251Z,17.02
2023-02-19T02:31:18.550Z,19.13
2023-02-19T02:33:59.868Z,18.67
2023-02-19T02:36:40.444Z,19.70
2023-02-19T02:39:16.665Z,19.98
2023-02-19T02:42:14.163Z,18.08
2023-02-19T02:45:07.845Z,19.58
2023-02-19T02:47:49.980Z,20.52
2023-02-19T02:50:33.977Z,20.80
2023-02-19T02:53:30.974Z,19.55
2023-02-19T02:56:01.469Z,21.13
2023-02-19T02:58:32.782Z,19.98
2023-02-19T03:01:47.503Z,19.02
2023-02-19T03:05:04.449Z,18.90
2023-02-19T03:07:53.141Z,19.40
2023-02-19T03:11:25.845Z,18.02
2023-02-19T03:14:27.661Z,18.30
2023-02-19T03:17:30.029Z,17.60
2023-02-19T03:20:04.673Z,20.13
2023-02-19T03:22:39.257Z,19.35
2023-02-19T03:25:45.050Z,18.92
2023-02-19T03:28:18.616Z,18.73
2023-02-19T03:30:55.185Z,18.90
2023-02-19T03:33:31.810Z,20.00
2023-02-19T03:36:07.784Z,21.08
2023-02-19T03:38:58.549Z,18.63
2023-02-19T03:41:53.852Z,20.23
2023-02-19T03:45:00.900Z,20.60
2023-02-19T03:47:45.894Z,19.30
2023-02-19T03:50:51.195Z,19.95
2023-02-19T03:53:39.277Z,19.98
2023-02-19T03:56:31.728Z,20.08
2023-02-19T03:59:42.583Z,19.17
2023-02-19T04:02:29.055Z,20.42
2023-02-19T04:05:21.381Z,19.20
2023-02-19T04:07:56.638Z,19.08
2023-02-19T04:10:27.278Z,19.08
2023-02-19T04:13:08.377Z,18.92
2023-02-19T04:15:42.296Z,16.60
2023-02-19T04:18:28.484Z,15.98
2023-02-19T04:21:01.506Z,16.50
2023-02-19T04:23:41.010Z,17.35
2023-02-19T04:26:12.048Z,14.20
2023-02-19T04:28:44.006Z,15.15
2023-02-19T04:31:13.841Z,13.32
2023-02-19T04:33:43.223Z,13.05
2023-02-19T04:36:13.329Z,12.80
2023-02-19T04:38:42.452Z,12.70
2023-02-19T04:41:12.524Z,11.93
2023-02-19T04:43:41.989Z,12.35
2023-02-19T04:46:11.263Z,12.82
2023-02-19T04:48:40.405Z,12.13
2023-02-19T04:51:11.309Z,12.55
2023-02-19T04:53:40.865Z,12.35
2023-02-19T04:56:17.852Z,12.93
2023-02-19T04:58:49.136Z,12.95
2023-02-19T05:01:20.593Z,13.15
2023-02-19T05:03:52.798Z,12.65
2023-02-19T05:06:21.948Z,12.57
2023-02-19T05:08:51.138Z,13.27
2023-02-19T05:11:20.373Z,12.73
2023-02-19T05:13:51.577Z,12.93
2023-02-19T05:16:20.941Z,13.32
2023-02-19T05:18:50.134Z,12.82
2023-02-19T05:21:19.394Z,12.82
2023-02-19T05:23:48.578Z,12.40
2023-02-19T05:26:22.639Z,12.30
2023-02-19T05:28:54.621Z,11.93
2023-02-19T05:31:24.197Z,12.55
2023-02-19T05:33:54.127Z,11.75
2023-02-19T05:36:24.230Z,11.45
2023-02-19T05:38:58.901Z,13.25
2023-02-19T05:41:32.017Z,11.85
2023-02-19T05:44:01.332Z,11.55
2023-02-19T05:46:32.543Z,11.38
2023-02-19T05:49:02.087Z,12.98
2023-02-19T05:51:31.801Z,10.63
2023-02-19T05:54:01.017Z,11.50
2023-02-19T05:56:42.510Z,11.43
2023-02-19T05:59:24.820Z,11.85
2023-02-19T06:01:56.446Z,11.13
2023-02-19T06:04:25.724Z,11.02
2023-02-19T06:06:55.096Z,11.25
2023-02-19T06:09:24.379Z,10.25
2023-02-19T06:11:53.576Z,10.63
2023-02-19T06:14:23.309Z,10.52
2023-02-19T06:16:52.465Z,10.55
2023-02-19T06:19:21.693Z,10.85
2023-02-19T06:21:52.616Z,10.40
2023-02-19T06:24:21.968Z,11.35
2023-02-19T06:26:51.158Z,10.40
2023-02-19T06:29:20.354Z,10.75
2023-02-19T06:31:49.665Z,10.88
2023-02-19T06:34:19.255Z,10.43
2023-02-19T06:36:50.838Z,10.77
2023-02-19T06:39:20.004Z,10.15
2023-02-19T06:41:49.164Z,9.85
2023-02-19T06:44:18.494Z,10.45
2023-02-19T06:46:47.778Z,10.40
2023-02-19T06:49:18.787Z,10.07
2023-02-19T06:51:48.100Z,10.07
2023-02-19T06:54:17.227Z,12.07
2023-02-19T06:56:47.205Z,10.25
2023-02-19T06:59:18.225Z,9.93
2023-02-19T07:01:47.803Z,10.05
2023-02-19T07:04:17.063Z,10.13
2023-02-19T07:06:46.658Z,10.23
2023-02-19T07:09:15.844Z,9.90
2023-02-19T07:11:44.960Z,10.65
2023-02-19T07:14:18.918Z,9.45
2023-02-19T07:16:49.426Z,9.63
2023-02-19T07:19:18.669Z,11.20
2023-02-19T07:21:47.954Z,10.48
2023-02-19T07:24:17.350Z,8.60
2023-02-19T07:26:46.509Z,9.88
2023-02-19T07:29:15.703Z,9.10
2023-02-19T07:31:45.689Z,8.10
2023-02-19T07:34:14.885Z,9.25
2023-02-19T07:36:44.119Z,8.52
2023-02-19T07:39:16.913Z,9.52
2023-02-19T07:41:46.129Z,9.07
2023-02-19T07:44:17.496Z,8.45
2023-02-19T07:46:46.952Z,10.48
2023-02-19T07:49:16.146Z,8.10
2023-02-19T07:51:45.953Z,8.95
2023-02-19T07:54:15.190Z,10.18
2023-02-19T07:56:44.653Z,8.43
2023-02-19T07:59:13.859Z,8.13
2023-02-19T08:02:01.434Z,8.30
2023-02-19T08:04:30.721Z,8.02
2023-02-19T08:06:59.906Z,8.25
2023-02-19T08:09:29.115Z,7.93
2023-02-19T08:12:16.489Z,7.43
2023-02-19T08:14:46.360Z,7.90
2023-02-19T08:17:15.674Z,9.18
2023-02-19T08:19:45.089Z,8.20
2023-02-19T08:22:17.222Z,8.00
2023-02-19T08:24:46.685Z,8.80
2023-02-19T08:27:15.865Z,7.95
2023-02-19T08:29:45.075Z,8.15
2023-02-19T08:32:14.998Z,8.60
2023-02-19T08:34:44.245Z,8.40
2023-02-19T08:37:13.409Z,8.63
2023-02-19T08:39:42.662Z,8.25
2023-02-19T08:42:11.845Z,7.65
2023-02-19T08:44:41.013Z,7.97
2023-02-19T08:47:10.296Z,8.68
2023-02-19T08:49:39.524Z,7.35
2023-02-19T08:52:08.744Z,7.93
2023-02-19T08:54:38.111Z,7.93
2023-02-19T08:57:07.373Z,6.93
2023-02-19T08:59:36.614Z,7.72
2023-02-19T09:02:05.928Z,8.07
2023-02-19T09:04:35.086Z,8.32
2023-02-19T09:07:08.511Z,7.45
2023-02-19T09:09:40.059Z,8.80
2023-02-19T09:12:14.474Z,8.70
2023-02-19T09:14:44.451Z,9.02
2023-02-19T09:17:14.294Z,8.30
2023-02-19T09:19:43.572Z,8.98
2023-02-19T09:22:12.757Z,9.50
2023-02-19T09:24:41.985Z,9.50
2023-02-19T09:27:15.976Z,10.02
2023-02-19T09:29:45.265Z,9.50
2023-02-19T09:32:16.223Z,11.20
2023-02-19T09:34:46.769Z,10.25
2023-02-19T09:37:15.943Z,9.90
2023-02-19T09:39:45.153Z,10.00
2023-02-19T09:42:30.251Z,9.88
2023-02-19T09:45:03.016Z,11.02
2023-02-19T09:47:36.140Z,9.20
2023-02-19T09:50:11.096Z,10.70
2023-02-19T09:52:56.420Z,14.50
2023-02-19T09:55:38.961Z,9.43
2023-02-19T09:58:36.663Z,17.23
2023-02-19T10:01:10.299Z,9.93
2023-02-19T10:03:48.049Z,14.80
2023-02-19T10:06:30.864Z,12.98
2023-02-19T10:09:24.849Z,9.68
2023-02-19T10:11:56.837Z,9.95
2023-02-19T10:14:46.444Z,10.18
2023-02-19T10:17:35.526Z,9.68
2023-02-19T10:20:05.528Z,9.75
2023-02-19T10:22:39.297Z,10.27
2023-02-19T10:25:09.071Z,9.60
2023-02-19T10:27:38.318Z,9.80
2023-02-19T10:30:14.149Z,9.68
2023-02-19T10:33:10.956Z,13.85
2023-02-19T10:36:05.890Z,10.85
2023-02-19T10:38:48.136Z,8.85
2023-02-19T10:41:24.518Z,8.98
2023-02-19T10:43:55.770Z,10.23
2023-02-19T10:46:30.881Z,9.38
2023-02-19T10:49:31.625Z,8.73
2023-02-19T10:52:27.014Z,9.27
2023-02-19T10:55:16.092Z,8.90
2023-02-19T10:57:45.757Z,8.50
2023-02-19T11:00:17.944Z,8.00
2023-02-19T11:02:47.759Z,9.40
2023-02-19T11:05:24.205Z,9.57
2023-02-19T11:07:58.247Z,8.68
2023-02-19T11:10:57.005Z,7.78
2023-02-19T11:13:39.088Z,10.68
2023-02-19T11:16:08.851Z,10.85
2023-02-19T11:18:38.852Z,10.07
2023-02-19T11:21:24.313Z,9.07
2023-02-19T11:23:53.634Z,9.68
2023-02-19T11:26:32.972Z,9.73
2023-02-19T11:29:19.167Z,9.80
2023-02-19T11:31:48.582Z,9.57
2023-02-19T11:34:25.859Z,9.43
2023-02-19T11:37:30.233Z,10.30
2023-02-19T11:39:59.422Z,9.10
2023-02-19T11:42:46.519Z,7.78
2023-02-19T11:45:36.621Z,6.80
2023-02-19T11:49:09.527Z,6.80
2023-02-19T11:52:08.601Z,6.70
2023-02-19T11:55:15.220Z,5.95
2023-02-19T11:58:09.338Z,6.90
2023-02-19T12:01:02.815Z,6.78
2023-02-19T12:04:18.475Z,6.32
2023-02-19T12:07:01.828Z,6.80
2023-02-19T12:10:10.600Z,7.07
2023-02-19T12:13:22.505Z,7.82
2023-02-19T12:16:13.233Z,7.13
2023-02-19T12:19:28.861Z,7.65
2023-02-19T12:22:27.613Z,5.88
2023-02-19T12:25:29.968Z,5.85
2023-02-19T12:28:36.197Z,6.78
2023-02-19T12:31:13.076Z,6.68
2023-02-19T12:34:18.131Z,6.72
2023-02-19T12:37:45.557Z,7.30
2023-02-19T12:40:40.638Z,7.82
2023-02-19T12:43:25.005Z,9.13
2023-02-19T12:46:24.475Z,8.77
2023-02-19T12:49:14.999Z,9.23
2023-02-19T12:52:10.563Z,9.23
2023-02-19T12:54:55.980Z,7.70
2023-02-19T12:57:38.379Z,7.75
2023-02-19T13:00:44.949Z,7.75
2023-02-19T13:03:31.762Z,7.65
2023-02-19T13:06:26.480Z,6.40
2023-02-19T13:09:22.831Z,7.07
2023-02-19T13:12:15.858Z,6.97
2023-02-19T13:14:53.821Z,7.13
2023-02-19T13:17:53.486Z,6.88
2023-02-19T13:20:33.568Z,8.65
2023-02-19T13:23:38.743Z,7.60
2023-02-19T13:27:01.433Z,7.65
2023-02-19T13:30:10.613Z,8.65
2023-02-19T13:33:08.453Z,9.13
2023-02-19T13:36:13.231Z,9.38
2023-02-19T13:38:46.973Z,8.43
2023-02-19T13:41:33.348Z,8.63
2023-02-19T13:44:09.249Z,8.55
2023-02-19T13:46:45.261Z,7.75
2023-02-19T13:49:35.385Z,10.48
2023-02-19T13:52:43.455Z,7.55
2023-02-19T13:59:00.863Z,7.35
2023-02-19T14:01:54.195Z,6.63
2023-02-19T14:04:51.310Z,6.50
2023-02-19T14:07:20.657Z,11.30
2023-02-19T14:09:50.606Z,8.00
2023-02-19T14:12:22.592Z,6.05
2023-02-19T14:14:54.383Z,7.05
2023-02-19T14:17:45.019Z,6.38
2023-02-19T14:20:42.930Z,6.80
2023-02-19T14:23:25.362Z,7.25
2023-02-19T14:26:05.468Z,6.20
2023-02-19T14:28:47.764Z,7.10
2023-02-19T14:31:28.435Z,7.78
2023-02-19T14:34:25.950Z,8.00
2023-02-19T14:37:01.268Z,6.93
2023-02-19T14:39:42.050Z,8.05
2023-02-19T14:42:16.578Z,6.97
2023-02-19T14:44:59.268Z,7.03
2023-02-19T14:47:35.558Z,8.43
2023-02-19T14:50:16.385Z,7.45
2023-02-19T14:52:56.517Z,6.70
2023-02-19T14:55:41.309Z,6.70
2023-02-19T14:58:21.425Z,6.72
2023-02-19T15:00:50.766Z,6.38
2023-02-19T15:03:40.353Z,7.10
2023-02-19T15:06:13.737Z,7.20
2023-02-19T15:08:50.639Z,7.20
2023-02-19T15:11:32.183Z,6.32
2023-02-19T15:14:09.384Z,6.53
2023-02-19T15:16:39.065Z,6.32
2023-02-19T15:19:11.767Z,7.07
2023-02-19T15:21:48.192Z,6.25
2023-02-19T15:24:20.551Z,6.95
2023-02-19T15:26:55.186Z,5.97
2023-02-19T15:29:29.068Z,6.18
2023-02-19T15:32:03.309Z,7.47
2023-02-19T15:34:34.345Z,8.38
2023-02-19T15:37:14.437Z,6.20
2023-02-19T15:39:49.463Z,5.80
2023-02-19T15:42:25.436Z,6.07
2023-02-19T15:45:18.372Z,5.78
2023-02-19T15:48:13.916Z,5.88
2023-02-19T15:50:50.097Z,5.28
2023-02-19T15:53:32.317Z,5.82
2023-02-19T15:56:16.469Z,6.50
2023-02-19T15:59:00.195Z,5.18
2023-02-19T16:01:34.032Z,4.57
2023-02-19T16:04:03.944Z,5.82
2023-02-19T16:06:51.337Z,6.00
2023-02-19T16:09:32.050Z,6.30
2023-02-19T16:12:21.938Z,6.13
2023-02-19T16:14:52.110Z,6.80
2023-02-19T16:17:28.844Z,6.65
2023-02-19T16:20:04.647Z,6.25
2023-02-19T16:22:43.847Z,6.85
2023-02-19T16:25:41.926Z,6.70
2023-02-19T16:31:04.513Z,7.28
2023-02-19T16:33:50.258Z,6.90
2023-02-19T16:36:39.023Z,6.82
2023-02-19T16:39:12.405Z,7.20
2023-02-19T16:41:48.011Z,7.95
2023-02-19T16:44:22.976Z,7.28
2023-02-19T16:46:55.432Z,7.53
2023-02-19T16:49:25.943Z,7.35
2023-02-19T16:51:55.724Z,8.13
2023-02-19T16:54:24.814Z,8.10
2023-02-19T16:56:53.956Z,7.55
2023-02-19T16:59:23.216Z,8.13
2023-02-19T17:01:52.345Z,8.25
2023-02-19T17:04:21.680Z,7.60
2023-02-19T17:06:51.857Z,8.13
2023-02-19T17:09:20.967Z,9.13
2023-02-19T17:11:50.258Z,8.43
2023-02-19T17:14:20.339Z,8.60
2023-02-19T17:16:49.695Z,9.15
2023-02-19T17:19:21.468Z,9.10
2023-02-19T17:21:50.829Z,9.55
2023-02-19T17:24:19.953Z,9.25
2023-02-19T17:26:49.169Z,9.77
2023-02-19T17:29:19.483Z,9.93
2023-02-19T17:31:48.744Z,9.60
2023-02-19T17:34:17.872Z,9.57
2023-02-19T17:36:49.652Z,9.60
2023-02-19T17:39:19.155Z,8.93
2023-02-19T17:41:48.299Z,9.07
2023-02-19T17:44:17.728Z,9.07
2023-02-19T17:46:49.394Z,8.93
2023-02-19T17:49:18.706Z,9.88
2023-02-19T17:51:47.800Z,8.15
2023-02-19T17:54:16.897Z,9.50
2023-02-19T17:56:48.067Z,8.82
2023-02-19T17:59:18.354Z,9.00
2023-02-19T18:01:47.524Z,9.60
2023-02-19T18:04:16.769Z,9.80
2023-02-19T18:06:45.868Z,9.20
2023-02-19T18:09:16.214Z,9.73
2023-02-19T18:11:48.510Z,9.68
2023-02-19T18:14:18.280Z,10.00
2023-02-19T18:16:51.787Z,9.15
2023-02-19T18:19:21.064Z,9.70
2023-02-19T18:21:50.387Z,10.60
2023-02-19T18:24:19.765Z,10.27
2023-02-19T18:26:48.848Z,10.18
2023-02-19T18:29:19.472Z,11.52
2023-02-19T18:31:48.681Z,11.32
2023-02-19T18:34:20.840Z,10.98
2023-02-19T18:36:51.183Z,10.73
2023-02-19T18:39:20.375Z,10.23
2023-02-19T18:41:51.713Z,10.48
2023-02-19T18:44:26.262Z,10.15
2023-02-19T18:46:55.418Z,11.50
2023-02-19T18:49:28.664Z,10.65
2023-02-19T18:52:00.200Z,11.30
2023-02-19T18:54:31.132Z,10.38
2023-02-19T18:57:05.409Z,10.00
2023-02-19T18:59:34.675Z,10.80
2023-02-19T19:02:05.996Z,11.00
2023-02-19T19:04:35.444Z,10.38
2023-02-19T19:07:07.126Z,11.93
2023-02-19T19:09:37.555Z,11.38
2023-02-19T19:12:07.344Z,10.77
2023-02-19T19:14:36.675Z,10.68
2023-02-19T19:17:06.510Z,11.38
2023-02-19T19:19:35.783Z,10.85
2023-02-19T19:22:04.938Z,11.68
2023-02-19T19:24:34.080Z,12.07
2023-02-19T19:27:03.215Z,11.73
2023-02-19T19:29:32.376Z,11.50
2023-02-19T19:32:01.610Z,11.30
2023-02-19T19:34:30.861Z,11.07
2023-02-19T19:36:59.992Z,12.18
2023-02-19T19:39:29.125Z,11.95
2023-02-19T19:41:58.952Z,10.98
2023-02-19T19:44:28.105Z,12.45
2023-02-19T19:46:58.135Z,13.20
2023-02-19T19:49:27.383Z,12.55
2023-02-19T19:51:58.733Z,12.43
2023-02-19T19:54:28.218Z,26.00
2023-02-19T19:56:57.489Z,16.33
2023-02-19T19:59:26.959Z,14.48
2023-02-19T20:01:59.079Z,12.43
2023-02-19T20:04:28.572Z,14.65
2023-02-19T20:07:01.038Z,12.38
2023-02-19T20:09:30.450Z,11.88
2023-02-19T20:11:59.563Z,12.52
2023-02-19T20:14:29.163Z,10.73
2023-02-19T20:16:58.452Z,10.55
2023-02-19T20:19:28.028Z,11.68
2023-02-19T20:21:57.199Z,10.73
2023-02-19T20:24:32.046Z,11.68
2023-02-19T20:27:03.550Z,12.52
2023-02-19T20:29:35.788Z,11.65
2023-02-19T20:32:05.143Z,11.82
2023-02-19T20:34:34.385Z,13.13
2023-02-19T20:37:03.614Z,12.43
2023-02-19T20:39:36.183Z,12.68
2023-02-19T20:42:06.893Z,13.35
2023-02-19T20:44:36.121Z,12.90
2023-02-19T20:47:05.417Z,12.73
2023-02-19T20:49:35.463Z,12.68
2023-02-19T20:52:08.584Z,13.88
2023-02-19T20:54:39.281Z,12.73
2023-02-19T20:57:08.488Z,13.77
2023-02-19T20:59:39.603Z,13.85
2023-02-19T21:02:20.317Z,12.57
2023-02-19T21:04:49.733Z,13.48
2023-02-19T21:07:19.290Z,12.93
2023-02-19T21:09:48.470Z,13.57
2023-02-19T21:12:17.949Z,12.90
2023-02-19T21:14:48.573Z,13.18
2023-02-19T21:17:17.847Z,13.50
2023-02-19T21:19:50.211Z,14.13
2023-02-19T21:22:19.564Z,13.45
2023-02-19T21:24:53.978Z,13.13
2023-02-19T21:27:23.177Z,15.90
2023-02-19T21:29:52.427Z,15.73
2023-02-19T21:32:21.720Z,16.27
2023-02-19T21:34:50.916Z,16.52
2023-02-19T21:37:20.040Z,15.60
2023-02-19T21:39:50.006Z,15.38
2023-02-19T21:42:19.179Z,14.80
2023-02-19T21:44:48.632Z,15.10
2023-02-19T21:47:17.766Z,14.50
2023-02-19T21:49:46.931Z,15.10
2023-02-19T21:52:16.099Z,15.27
2023-02-19T21:54:45.703Z,14.38
2023-02-19T21:57:14.740Z,15.00
2023-02-19T21:59:43.865Z,14.68
2023-02-19T22:02:13.408Z,14.40
2023-02-19T22:04:42.576Z,16.52
2023-02-19T22:07:11.719Z,14.52
2023-02-19T22:09:40.904Z,16.05
2023-02-19T22:12:10.055Z,16.92
2023-02-19T22:14:39.258Z,17.92
2023-02-19T22:17:08.497Z,17.77
2023-02-19T22:19:37.732Z,17.15
2023-02-19T22:22:07.234Z,17.67
2023-02-19T22:24:36.604Z,16.48
2023-02-19T22:27:06.168Z,17.80
2023-02-19T22:29:35.811Z,17.33
2023-02-19T22:32:05.193Z,18.27
2023-02-19T22:34:34.488Z,17.92
2023-02-19T22:37:03.690Z,18.60
2023-02-19T22:39:32.910Z,20.23
2023-02-19T22:42:02.313Z,18.65
2023-02-19T22:44:31.666Z,17.70
2023-02-19T22:47:00.903Z,17.42
2023-02-19T22:49:30.067Z,18.10
2023-02-19T22:52:09.301Z,17.52
2023-02-19T22:54:39.424Z,19.30
2023-02-19T22:57:08.778Z,20.05
2023-02-19T22:59:37.958Z,20.33
2023-02-19T23:02:07.212Z,21.52
2023-02-19T23:04:36.509Z,19.40
2023-02-19T23:07:07.886Z,19.73
2023-02-19T23:09:37.361Z,19.27
2023-02-19T23:12:12.786Z,18.35
2023-02-19T23:14:42.363Z,17.25
2023-02-19T23:17:11.557Z,18.02
2023-02-19T23:19:40.750Z,18.90
2023-02-19T23:22:10.206Z,19.92
2023-02-19T23:24:39.430Z,19.05
2023-02-19T23:27:08.607Z,20.98
2023-02-19T23:29:37.800Z,23.48
2023-02-19T23:32:07.561Z,22.45
2023-02-19T23:34:36.837Z,20.13
2023-02-19T23:37:06.513Z,17.63
2023-02-19T23:39:35.751Z,19.63
2023-02-19T23:42:05.088Z,19.20
2023-02-19T23:44:34.839Z,20.10
2023-02-19T23:47:04.039Z,18.38
2023-02-19T23:49:33.303Z,21.25
2023-02-19T23:52:02.463Z,21.48
2023-02-19T23:54:32.348Z,19.63
2023-02-19T23:57:01.615Z,19.50
2023-02-19T23:59:30.813Z,18.70
